sensor_id;sensor_type;location;lat;lon;timestamp;temperature;humidity
9939;DHT22;5008;50.656;7.188;2023-02-03T03:24:58;9.70;99.90
9939;DHT22;5008;50.656;7.188;2023-02-03T03:27:30;9.70;99.90
9939;DHT22;5008;50.656;7.188;2023-02-03T03:30:01;9.70;99.90
9939;DHT22;5008;50.656;7.188;2023-02-03T03:32:47;9.90;99.90
9939;DHT22;5008;50.656;7.188;2023-02-03T03:35:22;9.90;99.90
9939;DHT22;5008;50.656;7.188;2023-02-03T03:38:10;9.90;99.90
9939;DHT22;5008;50.656;7.188;2023-02-03T03:40:43;9.80;99.90
9939;DHT22;5008;50.656;7.188;2023-02-03T03:43:14;9.80;99.90
9939;DHT22;5008;50.656;7.188;2023-02-03T03:45:46;9.80;99.90
9939;DHT22;5008;50.656;7.188;2023-02-03T03:48:20;9.80;99.90
9939;DHT22;5008;50.656;7.188;2023-02-03T03:50:52;9.90;99.90
9939;DHT22;5008;50.656;7.188;2023-02-03T03:53:25;9.90;99.90
9939;DHT22;5008;50.656;7.188;2023-02-03T03:55:56;9.80;99.90
9939;DHT22;5008;50.656;7.188;2023-02-03T03:58:30;9.80;99.90
9939;DHT22;5008;50.656;7.188;2023-02-03T04:01:00;9.90;99.90
9939;DHT22;5008;50.656;7.188;2023-02-03T04:03:31;9.80;99.90
9939;DHT22;5008;50.656;7.188;2023-02-03T04:05:59;9.90;99.90
9939;DHT22;5008;50.656;7.188;2023-02-03T04:08:31;9.80;99.90
9939;DHT22;5008;50.656;7.188;2023-02-03T04:11:08;9.80;99.90
9939;DHT22;5008;50.656;7.188;2023-02-03T04:13:57;9.80;99.90
9939;DHT22;5008;50.656;7.188;2023-02-03T04:16:25;9.80;99.90
9939;DHT22;5008;50.656;7.188;2023-02-03T04:18:53;9.80;99.90
9939;DHT22;5008;50.656;7.188;2023-02-03T04:21:20;9.70;99.90
9939;DHT22;5008;50.656;7.188;2023-02-03T04:23:48;9.70;99.90
9939;DHT22;5008;50.656;7.188;2023-02-03T04:26:18;9.90;99.90
9939;DHT22;5008;50.656;7.188;2023-02-03T04:28:45;9.90;99.90
9939;DHT22;5008;50.656;7.188;2023-02-03T04:31:12;9.80;99.90
9939;DHT22;5008;50.656;7.188;2023-02-03T04:33:39;9.80;99.90
9939;DHT22;5008;50.656;7.188;2023-02-03T04:36:09;9.80;99.90
9939;DHT22;5008;50.656;7.188;2023-02-03T04:38:36;9.70;99.90
9939;DHT22;5008;50.656;7.188;2023-02-03T04:41:03;9.90;99.90
9939;DHT22;5008;50.656;7.188;2023-02-03T04:44:06;9.80;99.90
9939;DHT22;5008;50.656;7.188;2023-02-03T04:46:36;9.80;99.90
9939;DHT22;5008;50.656;7.188;2023-02-03T04:49:03;9.80;99.90
9939;DHT22;5008;50.656;7.188;2023-02-03T04:51:30;9.80;99.90
9939;DHT22;5008;50.656;7.188;2023-02-03T04:53:57;9.80;99.90
9939;DHT22;5008;50.656;7.188;2023-02-03T04:56:24;9.70;99.90
9939;DHT22;5008;50.656;7.188;2023-02-03T04:58:51;9.70;99.90
9939;DHT22;5008;50.656;7.188;2023-02-03T05:01:22;9.80;99.90
9939;DHT22;5008;50.656;7.188;2023-02-03T05:03:49;9.90;99.90
9939;DHT22;5008;50.656;7.188;2023-02-03T05:06:16;9.80;99.90
9939;DHT22;5008;50.656;7.188;2023-02-03T05:08:45;9.80;99.90
9939;DHT22;5008;50.656;7.188;2023-02-03T05:11:12;9.90;99.90
9939;DHT22;5008;50.656;7.188;2023-02-03T05:13:39;9.90;99.90
9939;DHT22;5008;50.656;7.188;2023-02-03T05:16:08;9.90;99.90
9939;DHT22;5008;50.656;7.188;2023-02-03T05:18:36;9.90;99.90
9939;DHT22;5008;50.656;7.188;2023-02-03T05:21:07;9.90;99.90
9939;DHT22;5008;50.656;7.188;2023-02-03T05:23:36;9.90;99.90
9939;DHT22;5008;50.656;7.188;2023-02-03T05:26:04;9.90;99.90
9939;DHT22;5008;50.656;7.188;2023-02-03T05:28:32;9.80;99.90
9939;DHT22;5008;50.656;7.188;2023-02-03T05:31:00;9.80;99.90
9939;DHT22;5008;50.656;7.188;2023-02-03T05:33:30;9.90;99.90
9939;DHT22;5008;50.656;7.188;2023-02-03T05:35:59;9.80;99.90
9939;DHT22;5008;50.656;7.188;2023-02-03T05:38:26;9.80;99.90
9939;DHT22;5008;50.656;7.188;2023-02-03T05:40:53;9.80;99.90
9939;DHT22;5008;50.656;7.188;2023-02-03T05:43:43;9.80;99.90
9939;DHT22;5008;50.656;7.188;2023-02-03T05:46:10;9.80;99.90
9939;DHT22;5008;50.656;7.188;2023-02-03T05:48:38;9.70;99.90
9939;DHT22;5008;50.656;7.188;2023-02-03T05:51:06;9.80;99.90
9939;DHT22;5008;50.656;7.188;2023-02-03T05:53:33;9.80;99.90
9939;DHT22;5008;50.656;7.188;2023-02-03T05:56:04;9.90;99.90
9939;DHT22;5008;50.656;7.188;2023-02-03T05:58:31;9.90;99.90
9939;DHT22;5008;50.656;7.188;2023-02-03T06:00:58;9.90;99.90
9939;DHT22;5008;50.656;7.188;2023-02-03T06:03:25;9.80;99.90
9939;DHT22;5008;50.656;7.188;2023-02-03T06:05:52;9.90;99.90
9939;DHT22;5008;50.656;7.188;2023-02-03T06:08:20;9.90;99.90
9939;DHT22;5008;50.656;7.188;2023-02-03T06:10:47;9.90;99.90
9939;DHT22;5008;50.656;7.188;2023-02-03T06:13:15;9.80;99.90
9939;DHT22;5008;50.656;7.188;2023-02-03T06:15:42;9.90;99.90
9939;DHT22;5008;50.656;7.188;2023-02-03T06:18:09;9.80;99.90
9939;DHT22;5008;50.656;7.188;2023-02-03T06:20:36;9.90;99.90
9939;DHT22;5008;50.656;7.188;2023-02-03T06:23:05;9.90;99.90
9939;DHT22;5008;50.656;7.188;2023-02-03T06:25:33;9.90;99.90
9939;DHT22;5008;50.656;7.188;2023-02-03T06:28:00;9.90;99.90
9939;DHT22;5008;50.656;7.188;2023-02-03T06:30:27;9.90;99.90
9939;DHT22;5008;50.656;7.188;2023-02-03T06:32:54;9.90;99.90
9939;DHT22;5008;50.656;7.188;2023-02-03T06:35:21;10.00;99.90
9939;DHT22;5008;50.656;7.188;2023-02-03T06:37:48;10.00;99.90
9939;DHT22;5008;50.656;7.188;2023-02-03T06:40:20;9.90;99.90
9939;DHT22;5008;50.656;7.188;2023-02-03T06:42:48;10.00;99.90
9939;DHT22;5008;50.656;7.188;2023-02-03T06:45:16;10.00;99.90
9939;DHT22;5008;50.656;7.188;2023-02-03T06:47:44;10.00;99.90
9939;DHT22;5008;50.656;7.188;2023-02-03T06:50:13;10.00;99.90
9939;DHT22;5008;50.656;7.188;2023-02-03T06:52:40;10.00;99.90
9939;DHT22;5008;50.656;7.188;2023-02-03T06:55:07;10.00;99.90
9939;DHT22;5008;50.656;7.188;2023-02-03T06:57:34;10.10;99.90
9939;DHT22;5008;50.656;7.188;2023-02-03T07:00:03;10.00;99.90
9939;DHT22;5008;50.656;7.188;2023-02-03T07:02:30;10.00;99.90
9939;DHT22;5008;50.656;7.188;2023-02-03T07:05:08;9.90;99.90
9939;DHT22;5008;50.656;7.188;2023-02-03T07:07:35;10.00;99.90
9939;DHT22;5008;50.656;7.188;2023-02-03T07:10:04;10.00;99.90
9939;DHT22;5008;50.656;7.188;2023-02-03T07:12:31;10.10;99.90
9939;DHT22;5008;50.656;7.188;2023-02-03T07:14:58;10.00;99.90
9939;DHT22;5008;50.656;7.188;2023-02-03T07:17:26;10.00;99.90
9939;DHT22;5008;50.656;7.188;2023-02-03T07:19:53;10.00;99.90
9939;DHT22;5008;50.656;7.188;2023-02-03T07:22:20;10.00;99.90
9939;DHT22;5008;50.656;7.188;2023-02-03T07:24:47;9.90;99.90
9939;DHT22;5008;50.656;7.188;2023-02-03T07:27:14;9.90;99.90
9939;DHT22;5008;50.656;7.188;2023-02-03T07:29:41;10.00;99.90
9939;DHT22;5008;50.656;7.188;2023-02-03T07:32:08;10.00;99.90
9939;DHT22;5008;50.656;7.188;2023-02-03T07:34:36;10.00;99.90
9939;DHT22;5008;50.656;7.188;2023-02-03T07:37:04;10.10;99.90
9939;DHT22;5008;50.656;7.188;2023-02-03T07:39:39;10.00;99.90
9939;DHT22;5008;50.656;7.188;2023-02-03T07:42:06;10.00;99.90
9939;DHT22;5008;50.656;7.188;2023-02-03T07:44:33;10.00;99.90
9939;DHT22;5008;50.656;7.188;2023-02-03T07:47:00;10.10;99.90
9939;DHT22;5008;50.656;7.188;2023-02-03T07:49:27;10.10;99.90
9939;DHT22;5008;50.656;7.188;2023-02-03T07:51:55;10.00;99.90
9939;DHT22;5008;50.656;7.188;2023-02-03T07:54:21;10.00;99.90
9939;DHT22;5008;50.656;7.188;2023-02-03T07:56:48;10.10;99.90
9939;DHT22;5008;50.656;7.188;2023-02-03T07:59:16;10.10;99.90
9939;DHT22;5008;50.656;7.188;2023-02-03T08:01:42;10.10;99.90
9939;DHT22;5008;50.656;7.188;2023-02-03T08:04:09;10.20;99.90
9939;DHT22;5008;50.656;7.188;2023-02-03T08:06:40;10.30;99.90
9939;DHT22;5008;50.656;7.188;2023-02-03T08:09:08;10.20;99.90
9939;DHT22;5008;50.656;7.188;2023-02-03T08:11:35;10.20;99.90
9939;DHT22;5008;50.656;7.188;2023-02-03T08:14:02;10.20;99.90
9939;DHT22;5008;50.656;7.188;2023-02-03T08:16:29;10.20;99.90
9939;DHT22;5008;50.656;7.188;2023-02-03T08:18:55;10.30;99.90
9939;DHT22;5008;50.656;7.188;2023-02-03T08:21:22;10.20;99.90
9939;DHT22;5008;50.656;7.188;2023-02-03T08:23:49;10.30;99.90
9939;DHT22;5008;50.656;7.188;2023-02-03T08:26:17;10.30;99.90
9939;DHT22;5008;50.656;7.188;2023-02-03T08:28:47;10.20;99.90
9939;DHT22;5008;50.656;7.188;2023-02-03T08:31:14;10.30;99.90
9939;DHT22;5008;50.656;7.188;2023-02-03T08:33:41;10.30;99.90
9939;DHT22;5008;50.656;7.188;2023-02-03T08:36:08;10.20;99.90
9939;DHT22;5008;50.656;7.188;2023-02-03T08:38:35;10.20;99.90
9939;DHT22;5008;50.656;7.188;2023-02-03T08:41:08;10.20;99.90
9939;DHT22;5008;50.656;7.188;2023-02-03T08:43:36;10.20;99.90
9939;DHT22;5008;50.656;7.188;2023-02-03T08:46:03;10.30;99.90
9939;DHT22;5008;50.656;7.188;2023-02-03T08:48:30;10.30;99.90
9939;DHT22;5008;50.656;7.188;2023-02-03T08:50:58;10.40;99.90
9939;DHT22;5008;50.656;7.188;2023-02-03T08:53:25;10.40;99.90
9939;DHT22;5008;50.656;7.188;2023-02-03T08:55:58;10.40;99.90
9939;DHT22;5008;50.656;7.188;2023-02-03T08:58:25;10.30;99.90
9939;DHT22;5008;50.656;7.188;2023-02-03T09:00:54;10.40;99.90
9939;DHT22;5008;50.656;7.188;2023-02-03T09:03:21;10.40;99.90
9939;DHT22;5008;50.656;7.188;2023-02-03T09:05:48;10.40;99.90
9939;DHT22;5008;50.656;7.188;2023-02-03T09:08:15;10.50;99.90
9939;DHT22;5008;50.656;7.188;2023-02-03T09:10:42;10.40;99.90
9939;DHT22;5008;50.656;7.188;2023-02-03T09:13:09;10.40;99.90
9939;DHT22;5008;50.656;7.188;2023-02-03T09:15:36;10.40;99.90
9939;DHT22;5008;50.656;7.188;2023-02-03T09:18:04;10.40;99.90
9939;DHT22;5008;50.656;7.188;2023-02-03T09:20:31;10.50;99.90
9939;DHT22;5008;50.656;7.188;2023-02-03T09:22:58;10.50;99.90
9939;DHT22;5008;50.656;7.188;2023-02-03T09:25:25;10.40;99.90
9939;DHT22;5008;50.656;7.188;2023-02-03T09:27:51;10.40;99.90
9939;DHT22;5008;50.656;7.188;2023-02-03T09:33:13;10.50;99.90
9939;DHT22;5008;50.656;7.188;2023-02-03T09:35:40;10.40;99.90
9939;DHT22;5008;50.656;7.188;2023-02-03T09:38:07;10.40;99.90
9939;DHT22;5008;50.656;7.188;2023-02-03T09:40:35;10.50;99.90
9939;DHT22;5008;50.656;7.188;2023-02-03T09:43:21;10.50;99.90
9939;DHT22;5008;50.656;7.188;2023-02-03T09:46:02;10.50;99.90
9939;DHT22;5008;50.656;7.188;2023-02-03T09:48:36;10.50;99.90
9939;DHT22;5008;50.656;7.188;2023-02-03T09:51:07;10.50;99.90
9939;DHT22;5008;50.656;7.188;2023-02-03T09:53:44;10.40;99.90
9939;DHT22;5008;50.656;7.188;2023-02-03T09:56:22;10.40;99.90
9939;DHT22;5008;50.656;7.188;2023-02-03T09:58:52;10.40;99.90
9939;DHT22;5008;50.656;7.188;2023-02-03T10:01:20;10.30;99.90
9939;DHT22;5008;50.656;7.188;2023-02-03T10:03:53;10.40;99.90
9939;DHT22;5008;50.656;7.188;2023-02-03T10:06:30;10.40;99.90
9939;DHT22;5008;50.656;7.188;2023-02-03T10:09:17;10.40;99.90
9939;DHT22;5008;50.656;7.188;2023-02-03T10:12:10;10.40;99.90
9939;DHT22;5008;50.656;7.188;2023-02-03T10:14:52;10.40;99.90
9939;DHT22;5008;50.656;7.188;2023-02-03T10:17:28;10.40;99.90
9939;DHT22;5008;50.656;7.188;2023-02-03T10:20:02;10.40;99.90
9939;DHT22;5008;50.656;7.188;2023-02-03T10:22:33;10.50;99.90
9939;DHT22;5008;50.656;7.188;2023-02-03T10:25:06;10.50;99.90
9939;DHT22;5008;50.656;7.188;2023-02-03T10:27:34;10.40;99.90
9939;DHT22;5008;50.656;7.188;2023-02-03T10:30:04;10.40;99.90
9939;DHT22;5008;50.656;7.188;2023-02-03T10:32:32;10.40;99.90
9939;DHT22;5008;50.656;7.188;2023-02-03T10:35:09;10.50;99.90
9939;DHT22;5008;50.656;7.188;2023-02-03T10:37:40;10.50;99.90
9939;DHT22;5008;50.656;7.188;2023-02-03T10:40:11;10.50;99.90
9939;DHT22;5008;50.656;7.188;2023-02-03T10:42:38;10.50;99.90
9939;DHT22;5008;50.656;7.188;2023-02-03T10:45:22;10.50;99.90
9939;DHT22;5008;50.656;7.188;2023-02-03T10:47:51;10.60;99.90
9939;DHT22;5008;50.656;7.188;2023-02-03T10:50:22;10.50;99.90
9939;DHT22;5008;50.656;7.188;2023-02-03T10:53:23;10.50;99.90
9939;DHT22;5008;50.656;7.188;2023-02-03T10:55:58;10.60;99.90
9939;DHT22;5008;50.656;7.188;2023-02-03T10:58:28;10.50;99.90
9939;DHT22;5008;50.656;7.188;2023-02-03T11:01:05;10.50;99.90
9939;DHT22;5008;50.656;7.188;2023-02-03T11:03:33;10.60;99.90
9939;DHT22;5008;50.656;7.188;2023-02-03T11:06:12;10.60;99.90
9939;DHT22;5008;50.656;7.188;2023-02-03T11:08:44;10.70;99.90
9939;DHT22;5008;50.656;7.188;2023-02-03T11:11:13;10.70;99.90
9939;DHT22;5008;50.656;7.188;2023-02-03T11:13:40;10.80;99.90
9939;DHT22;5008;50.656;7.188;2023-02-03T11:16:12;10.80;99.90
9939;DHT22;5008;50.656;7.188;2023-02-03T11:18:53;10.90;99.90
9939;DHT22;5008;50.656;7.188;2023-02-03T11:21:24;10.90;99.90
9939;DHT22;5008;50.656;7.188;2023-02-03T11:24:05;11.00;99.90
9939;DHT22;5008;50.656;7.188;2023-02-03T11:26:35;11.10;99.90
9939;DHT22;5008;50.656;7.188;2023-02-03T11:29:04;11.10;99.90
9939;DHT22;5008;50.656;7.188;2023-02-03T11:31:34;11.10;99.90
9939;DHT22;5008;50.656;7.188;2023-02-03T11:34:04;11.10;99.90
9939;DHT22;5008;50.656;7.188;2023-02-03T11:36:34;11.10;99.90
9939;DHT22;5008;50.656;7.188;2023-02-03T11:39:15;11.10;99.90
9939;DHT22;5008;50.656;7.188;2023-02-03T11:41:43;11.10;99.90
9939;DHT22;5008;50.656;7.188;2023-02-03T11:44:11;11.10;99.90
9939;DHT22;5008;50.656;7.188;2023-02-03T11:46:39;11.20;99.90
9939;DHT22;5008;50.656;7.188;2023-02-03T11:49:18;11.20;99.90
9939;DHT22;5008;50.656;7.188;2023-02-03T11:51:57;11.20;99.90
9939;DHT22;5008;50.656;7.188;2023-02-03T11:54:35;11.10;99.90
9939;DHT22;5008;50.656;7.188;2023-02-03T11:57:22;11.10;99.90
9939;DHT22;5008;50.656;7.188;2023-02-03T12:00:02;11.10;99.90
9939;DHT22;5008;50.656;7.188;2023-02-03T12:08:45;11.00;99.90
9939;DHT22;5008;50.656;7.188;2023-02-03T12:11:28;11.00;99.90
9939;DHT22;5008;50.656;7.188;2023-02-03T12:14:29;11.00;99.90
9939;DHT22;5008;50.656;7.188;2023-02-03T12:17:24;11.00;99.90
9939;DHT22;5008;50.656;7.188;2023-02-03T12:20:04;11.00;99.90
9939;DHT22;5008;50.656;7.188;2023-02-03T12:23:12;10.90;99.90
9939;DHT22;5008;50.656;7.188;2023-02-03T12:25:51;10.90;99.90
9939;DHT22;5008;50.656;7.188;2023-02-03T12:28:48;11.00;99.90
9939;DHT22;5008;50.656;7.188;2023-02-03T12:31:23;10.90;99.90
9939;DHT22;5008;50.656;7.188;2023-02-03T12:33:59;10.90;99.90
9939;DHT22;5008;50.656;7.188;2023-02-03T12:36:32;10.80;99.90
9939;DHT22;5008;50.656;7.188;2023-02-03T12:39:04;10.80;99.90
9939;DHT22;5008;50.656;7.188;2023-02-03T12:41:39;10.80;99.90
9939;DHT22;5008;50.656;7.188;2023-02-03T12:44:14;10.80;99.90
9939;DHT22;5008;50.656;7.188;2023-02-03T12:46:44;10.90;99.90
9939;DHT22;5008;50.656;7.188;2023-02-03T12:49:29;10.90;99.90
9939;DHT22;5008;50.656;7.188;2023-02-03T12:51:59;10.90;99.90
9939;DHT22;5008;50.656;7.188;2023-02-03T12:54:35;10.90;99.90
9939;DHT22;5008;50.656;7.188;2023-02-03T12:57:13;10.80;99.90
9939;DHT22;5008;50.656;7.188;2023-02-03T12:59:52;10.90;99.90
9939;DHT22;5008;50.656;7.188;2023-02-03T13:02:25;10.90;99.90
9939;DHT22;5008;50.656;7.188;2023-02-03T13:04:55;10.80;99.90
9939;DHT22;5008;50.656;7.188;2023-02-03T13:07:26;10.90;99.90
9939;DHT22;5008;50.656;7.188;2023-02-03T13:10:03;10.90;99.90
9939;DHT22;5008;50.656;7.188;2023-02-03T13:12:36;10.90;99.90
9939;DHT22;5008;50.656;7.188;2023-02-03T13:15:19;10.80;99.90
9939;DHT22;5008;50.656;7.188;2023-02-03T13:17:55;10.90;99.90
9939;DHT22;5008;50.656;7.188;2023-02-03T13:20:25;10.80;99.90
9939;DHT22;5008;50.656;7.188;2023-02-03T13:22:53;10.80;99.90
9939;DHT22;5008;50.656;7.188;2023-02-03T13:25:23;10.90;99.90
9939;DHT22;5008;50.656;7.188;2023-02-03T13:28:00;10.80;99.90
9939;DHT22;5008;50.656;7.188;2023-02-03T13:30:51;10.80;99.90
9939;DHT22;5008;50.656;7.188;2023-02-03T13:33:45;10.80;99.90
9939;DHT22;5008;50.656;7.188;2023-02-03T13:36:47;10.80;99.90
9939;DHT22;5008;50.656;7.188;2023-02-03T13:39:28;10.80;99.90
9939;DHT22;5008;50.656;7.188;2023-02-03T13:42:19;10.80;99.90
9939;DHT22;5008;50.656;7.188;2023-02-03T13:44:51;10.80;99.90
9939;DHT22;5008;50.656;7.188;2023-02-03T13:47:22;10.80;99.90
9939;DHT22;5008;50.656;7.188;2023-02-03T13:49:54;10.80;99.90
9939;DHT22;5008;50.656;7.188;2023-02-03T13:52:24;10.70;99.90
9939;DHT22;5008;50.656;7.188;2023-02-03T13:54:52;10.80;99.90
9939;DHT22;5008;50.656;7.188;2023-02-03T13:57:21;10.70;99.90
9939;DHT22;5008;50.656;7.188;2023-02-03T13:59:49;10.70;99.90
9939;DHT22;5008;50.656;7.188;2023-02-03T14:02:39;10.70;99.90
9939;DHT22;5008;50.656;7.188;2023-02-03T14:07:49;10.60;99.90
9939;DHT22;5008;50.656;7.188;2023-02-03T14:10:20;10.60;99.90
9939;DHT22;5008;50.656;7.188;2023-02-03T14:12:55;10.50;99.90
9939;DHT22;5008;50.656;7.188;2023-02-03T14:15:34;10.50;99.90
9939;DHT22;5008;50.656;7.188;2023-02-03T14:20:56;10.50;99.90
9939;DHT22;5008;50.656;7.188;2023-02-03T14:23:41;10.50;99.90
9939;DHT22;5008;50.656;7.188;2023-02-03T14:26:17;10.40;99.90
9939;DHT22;5008;50.656;7.188;2023-02-03T14:28:46;10.40;99.90
9939;DHT22;5008;50.656;7.188;2023-02-03T14:31:22;10.40;99.90
9939;DHT22;5008;50.656;7.188;2023-02-03T14:34:01;10.30;99.90
9939;DHT22;5008;50.656;7.188;2023-02-03T14:36:38;10.40;99.90
9939;DHT22;5008;50.656;7.188;2023-02-03T14:39:29;10.40;99.90
9939;DHT22;5008;50.656;7.188;2023-02-03T14:42:06;10.40;99.90
9939;DHT22;5008;50.656;7.188;2023-02-03T14:44:40;10.40;99.90
9939;DHT22;5008;50.656;7.188;2023-02-03T14:47:22;10.40;99.90
9939;DHT22;5008;50.656;7.188;2023-02-03T14:50:06;10.40;99.90
9939;DHT22;5008;50.656;7.188;2023-02-03T14:52:51;10.50;99.90
9939;DHT22;5008;50.656;7.188;2023-02-03T14:55:33;10.50;99.90
9939;DHT22;5008;50.656;7.188;2023-02-03T14:58:03;10.50;99.90
9939;DHT22;5008;50.656;7.188;2023-02-03T15:00:33;10.50;99.90
9939;DHT22;5008;50.656;7.188;2023-02-03T15:03:21;10.50;99.90
9939;DHT22;5008;50.656;7.188;2023-02-03T15:05:53;10.50;99.90
9939;DHT22;5008;50.656;7.188;2023-02-03T15:08:39;10.40;99.90
9939;DHT22;5008;50.656;7.188;2023-02-03T15:11:28;10.40;99.90
9939;DHT22;5008;50.656;7.188;2023-02-03T15:13:56;10.30;99.90
9939;DHT22;5008;50.656;7.188;2023-02-03T15:16:24;10.30;99.90
9939;DHT22;5008;50.656;7.188;2023-02-03T15:18:58;10.30;99.90
9939;DHT22;5008;50.656;7.188;2023-02-03T15:21:27;10.30;99.90
9939;DHT22;5008;50.656;7.188;2023-02-03T15:23:54;10.30;99.90
9939;DHT22;5008;50.656;7.188;2023-02-03T15:26:22;10.30;99.90
9939;DHT22;5008;50.656;7.188;2023-02-03T15:28:54;10.20;99.90
9939;DHT22;5008;50.656;7.188;2023-02-03T15:31:28;10.30;99.90
9939;DHT22;5008;50.656;7.188;2023-02-03T15:34:05;10.20;99.90
9939;DHT22;5008;50.656;7.188;2023-02-03T15:36:39;10.30;99.90
9939;DHT22;5008;50.656;7.188;2023-02-03T15:39:20;10.20;99.90
9939;DHT22;5008;50.656;7.188;2023-02-03T15:41:53;10.20;99.90
9939;DHT22;5008;50.656;7.188;2023-02-03T15:44:26;10.20;99.90
9939;DHT22;5008;50.656;7.188;2023-02-03T15:46:56;10.20;99.90
9939;DHT22;5008;50.656;7.188;2023-02-03T15:49:27;10.30;99.90
9939;DHT22;5008;50.656;7.188;2023-02-03T15:51:59;10.30;99.90
9939;DHT22;5008;50.656;7.188;2023-02-03T15:54:31;10.30;99.90
9939;DHT22;5008;50.656;7.188;2023-02-03T15:57:06;10.20;99.90
9939;DHT22;5008;50.656;7.188;2023-02-03T15:59:37;10.20;99.90
9939;DHT22;5008;50.656;7.188;2023-02-03T16:02:11;10.30;99.90
9939;DHT22;5008;50.656;7.188;2023-02-03T16:04:49;10.20;99.90
9939;DHT22;5008;50.656;7.188;2023-02-03T16:07:17;10.30;99.90
9939;DHT22;5008;50.656;7.188;2023-02-03T16:09:44;10.30;99.90
9939;DHT22;5008;50.656;7.188;2023-02-03T16:12:16;10.30;99.90
9939;DHT22;5008;50.656;7.188;2023-02-03T16:14:44;10.30;99.90
9939;DHT22;5008;50.656;7.188;2023-02-03T16:17:29;10.40;99.90
9939;DHT22;5008;50.656;7.188;2023-02-03T16:20:23;10.30;99.90
9939;DHT22;5008;50.656;7.188;2023-02-03T16:23:01;10.30;99.90
9939;DHT22;5008;50.656;7.188;2023-02-03T16:25:30;10.30;99.90
9939;DHT22;5008;50.656;7.188;2023-02-03T16:27:58;10.30;99.90
9939;DHT22;5008;50.656;7.188;2023-02-03T16:30:53;10.30;99.90
9939;DHT22;5008;50.656;7.188;2023-02-03T16:33:38;10.40;99.90
9939;DHT22;5008;50.656;7.188;2023-02-03T16:36:26;10.40;99.90
9939;DHT22;5008;50.656;7.188;2023-02-03T16:39:11;10.40;99.90
9939;DHT22;5008;50.656;7.188;2023-02-03T16:41:57;10.30;99.90
9939;DHT22;5008;50.656;7.188;2023-02-03T16:44:41;10.30;99.90
9939;DHT22;5008;50.656;7.188;2023-02-03T16:47:29;10.30;99.90
9939;DHT22;5008;50.656;7.188;2023-02-03T16:50:16;10.40;99.90
9939;DHT22;5008;50.656;7.188;2023-02-03T16:53:02;10.40;99.90
9939;DHT22;5008;50.656;7.188;2023-02-03T16:55:29;10.30;99.90
9939;DHT22;5008;50.656;7.188;2023-02-03T16:57:56;10.30;99.90
9939;DHT22;5008;50.656;7.188;2023-02-03T17:00:23;10.30;99.90
9939;DHT22;5008;50.656;7.188;2023-02-03T17:02:50;10.30;99.90
9939;DHT22;5008;50.656;7.188;2023-02-03T17:05:17;10.30;99.90
9939;DHT22;5008;50.656;7.188;2023-02-03T17:07:44;10.30;99.90
9939;DHT22;5008;50.656;7.188;2023-02-03T17:10:13;10.30;99.90
9939;DHT22;5008;50.656;7.188;2023-02-03T17:12:40;10.20;99.90
9939;DHT22;5008;50.656;7.188;2023-02-03T17:15:07;10.20;99.90
9939;DHT22;5008;50.656;7.188;2023-02-03T17:17:38;10.10;99.90
9939;DHT22;5008;50.656;7.188;2023-02-03T17:20:06;10.10;99.90
9939;DHT22;5008;50.656;7.188;2023-02-03T17:22:33;10.00;99.90
9939;DHT22;5008;50.656;7.188;2023-02-03T17:25:00;10.10;99.90
9939;DHT22;5008;50.656;7.188;2023-02-03T17:27:28;10.00;99.90
9939;DHT22;5008;50.656;7.188;2023-02-03T17:29:54;9.90;99.90
9939;DHT22;5008;50.656;7.188;2023-02-03T17:32:21;9.80;99.90
9939;DHT22;5008;50.656;7.188;2023-02-03T17:34:48;9.80;99.90
9939;DHT22;5008;50.656;7.188;2023-02-03T17:37:15;9.80;99.90
9939;DHT22;5008;50.656;7.188;2023-02-03T17:39:42;9.80;99.90
9939;DHT22;5008;50.656;7.188;2023-02-03T17:42:08;9.80;99.90
9939;DHT22;5008;50.656;7.188;2023-02-03T17:44:36;9.80;99.90
9939;DHT22;5008;50.656;7.188;2023-02-03T17:47:03;9.80;99.90
9939;DHT22;5008;50.656;7.188;2023-02-03T17:49:30;9.70;99.90
9939;DHT22;5008;50.656;7.188;2023-02-03T17:51:57;9.70;99.90
9939;DHT22;5008;50.656;7.188;2023-02-03T17:54:24;9.70;99.90
9939;DHT22;5008;50.656;7.188;2023-02-03T17:56:51;9.70;99.90
9939;DHT22;5008;50.656;7.188;2023-02-03T17:59:17;9.60;99.90
9939;DHT22;5008;50.656;7.188;2023-02-03T18:01:46;9.60;99.90
9939;DHT22;5008;50.656;7.188;2023-02-03T18:04:12;9.60;99.90
9939;DHT22;5008;50.656;7.188;2023-02-03T18:06:39;9.60;99.90
9939;DHT22;5008;50.656;7.188;2023-02-03T18:09:07;9.50;99.90
9939;DHT22;5008;50.656;7.188;2023-02-03T18:11:35;9.60;99.90
9939;DHT22;5008;50.656;7.188;2023-02-03T18:14:03;9.50;99.90
9939;DHT22;5008;50.656;7.188;2023-02-03T18:16:31;9.50;99.90
9939;DHT22;5008;50.656;7.188;2023-02-03T18:19:02;9.60;99.90
9939;DHT22;5008;50.656;7.188;2023-02-03T18:21:29;9.50;99.90
9939;DHT22;5008;50.656;7.188;2023-02-03T18:23:57;9.50;99.90
9939;DHT22;5008;50.656;7.188;2023-02-03T18:26:27;9.60;99.90
9939;DHT22;5008;50.656;7.188;2023-02-03T18:28:56;9.60;99.90
9939;DHT22;5008;50.656;7.188;2023-02-03T18:31:23;9.60;99.90
9939;DHT22;5008;50.656;7.188;2023-02-03T18:33:50;9.60;99.90
9939;DHT22;5008;50.656;7.188;2023-02-03T18:36:19;9.70;99.90
9939;DHT22;5008;50.656;7.188;2023-02-03T18:38:47;9.70;99.90
9939;DHT22;5008;50.656;7.188;2023-02-03T18:41:15;9.60;99.90
9939;DHT22;5008;50.656;7.188;2023-02-03T18:43:42;9.60;99.90
9939;DHT22;5008;50.656;7.188;2023-02-03T18:46:11;9.70;99.90
9939;DHT22;5008;50.656;7.188;2023-02-03T18:48:38;9.60;99.90
9939;DHT22;5008;50.656;7.188;2023-02-03T18:51:07;9.60;99.90
9939;DHT22;5008;50.656;7.188;2023-02-03T18:53:35;9.50;99.90
9939;DHT22;5008;50.656;7.188;2023-02-03T18:56:05;9.60;99.90
9939;DHT22;5008;50.656;7.188;2023-02-03T18:58:33;9.60;99.90
9939;DHT22;5008;50.656;7.188;2023-02-03T19:01:06;9.60;99.90
9939;DHT22;5008;50.656;7.188;2023-02-03T19:03:33;9.60;99.90
9939;DHT22;5008;50.656;7.188;2023-02-03T19:06:00;9.50;99.90
9939;DHT22;5008;50.656;7.188;2023-02-03T19:08:28;9.50;99.90
9939;DHT22;5008;50.656;7.188;2023-02-03T19:10:56;9.60;99.90
9939;DHT22;5008;50.656;7.188;2023-02-03T19:13:22;9.50;99.90
9939;DHT22;5008;50.656;7.188;2023-02-03T19:15:52;9.60;99.90
9939;DHT22;5008;50.656;7.188;2023-02-03T19:18:19;9.60;99.90
9939;DHT22;5008;50.656;7.188;2023-02-03T19:20:46;9.50;99.90
9939;DHT22;5008;50.656;7.188;2023-02-03T19:23:13;9.50;99.90
9939;DHT22;5008;50.656;7.188;2023-02-03T19:25:40;9.60;99.90
9939;DHT22;5008;50.656;7.188;2023-02-03T19:28:08;9.60;99.90
9939;DHT22;5008;50.656;7.188;2023-02-03T19:30:35;9.60;99.90
9939;DHT22;5008;50.656;7.188;2023-02-03T19:33:02;9.60;99.90
9939;DHT22;5008;50.656;7.188;2023-02-03T19:35:29;9.50;99.90
9939;DHT22;5008;50.656;7.188;2023-02-03T19:37:58;9.50;99.90
9939;DHT22;5008;50.656;7.188;2023-02-03T19:40:24;9.50;99.90
9939;DHT22;5008;50.656;7.188;2023-02-03T19:42:51;9.50;99.90
9939;DHT22;5008;50.656;7.188;2023-02-03T19:45:19;9.50;99.90
9939;DHT22;5008;50.656;7.188;2023-02-03T19:47:47;9.50;99.90
9939;DHT22;5008;50.656;7.188;2023-02-03T19:50:14;9.40;99.90
9939;DHT22;5008;50.656;7.188;2023-02-03T19:52:41;9.50;99.90
9939;DHT22;5008;50.656;7.188;2023-02-03T19:55:08;9.60;99.90
9939;DHT22;5008;50.656;7.188;2023-02-03T19:57:36;9.50;99.90
9939;DHT22;5008;50.656;7.188;2023-02-03T20:00:03;9.60;99.90
9939;DHT22;5008;50.656;7.188;2023-02-03T20:02:31;9.70;99.90
9939;DHT22;5008;50.656;7.188;2023-02-03T20:04:58;9.70;99.90
9939;DHT22;5008;50.656;7.188;2023-02-03T20:07:25;9.80;99.90
9939;DHT22;5008;50.656;7.188;2023-02-03T20:09:53;9.70;99.90
9939;DHT22;5008;50.656;7.188;2023-02-03T20:12:19;9.60;99.90
9939;DHT22;5008;50.656;7.188;2023-02-03T20:14:46;9.60;99.90